sensor_id;sensor_type;location;lat;lon;timestamp;P1;durP1;ratioP1;P2;durP2;ratioP2
29378;SDS011;16362;47.202;15.258;2022-09-14T00:00:50;4.63;;;4.13;;
29378;SDS011;16362;47.202;15.258;2022-09-14T00:03:38;4.53;;;4.13;;
29378;SDS011;16362;47.202;15.258;2022-09-14T00:06:06;12.02;;;4.25;;
29378;SDS011;16362;47.202;15.258;2022-09-14T00:08:34;4.13;;;3.92;;
29378;SDS011;16362;47.202;15.258;2022-09-14T00:11:08;6.03;;;4.60;;
29378;SDS011;16362;47.202;15.258;2022-09-14T00:13:38;4.28;;;4.07;;
29378;SDS011;16362;47.202;15.258;2022-09-14T00:16:13;4.20;;;4.00;;
29378;SDS011;16362;47.202;15.258;2022-09-14T00:18:48;4.13;;;3.83;;
29378;SDS011;16362;47.202;15.258;2022-09-14T00:21:19;4.50;;;4.22;;
29378;SDS011;16362;47.202;15.258;2022-09-14T00:23:46;3.75;;;3.65;;
29378;SDS011;16362;47.202;15.258;2022-09-14T00:26:16;6.45;;;4.28;;
29378;SDS011;16362;47.202;15.258;2022-09-14T00:28:46;7.07;;;4.30;;
29378;SDS011;16362;47.202;15.258;2022-09-14T00:31:14;4.57;;;3.78;;
29378;SDS011;16362;47.202;15.258;2022-09-14T00:33:42;3.88;;;3.67;;
29378;SDS011;16362;47.202;15.258;2022-09-14T00:36:24;4.95;;;4.55;;
29378;SDS011;16362;47.202;15.258;2022-09-14T00:38:53;8.90;;;3.60;;
29378;SDS011;16362;47.202;15.258;2022-09-14T00:41:27;4.32;;;3.83;;
29378;SDS011;16362;47.202;15.258;2022-09-14T00:46:33;4.32;;;3.78;;
29378;SDS011;16362;47.202;15.258;2022-09-14T00:49:03;4.15;;;3.85;;
29378;SDS011;16362;47.202;15.258;2022-09-14T00:51:33;4.07;;;3.88;;
29378;SDS011;16362;47.202;15.258;2022-09-14T00:54:03;9.50;;;3.28;;
29378;SDS011;16362;47.202;15.258;2022-09-14T00:56:32;8.02;;;4.15;;
29378;SDS011;16362;47.202;15.258;2022-09-14T00:58:59;4.40;;;4.10;;
29378;SDS011;16362;47.202;15.258;2022-09-14T01:01:30;4.45;;;3.95;;
29378;SDS011;16362;47.202;15.258;2022-09-14T01:03:57;3.90;;;3.70;;
29378;SDS011;16362;47.202;15.258;2022-09-14T01:06:31;4.22;;;3.47;;
29378;SDS011;16362;47.202;15.258;2022-09-14T01:09:08;3.83;;;3.63;;
29378;SDS011;16362;47.202;15.258;2022-09-14T01:17:16;4.38;;;3.80;;
29378;SDS011;16362;47.202;15.258;2022-09-14T01:20:06;4.68;;;4.30;;
29378;SDS011;16362;47.202;15.258;2022-09-14T01:22:50;6.07;;;3.80;;
29378;SDS011;16362;47.202;15.258;2022-09-14T01:31:15;4.30;;;4.10;;
29378;SDS011;16362;47.202;15.258;2022-09-14T01:34:24;4.68;;;4.43;;
29378;SDS011;16362;47.202;15.258;2022-09-14T01:37:02;4.53;;;3.85;;
29378;SDS011;16362;47.202;15.258;2022-09-14T01:39:42;4.53;;;4.13;;
29378;SDS011;16362;47.202;15.258;2022-09-14T01:42:11;4.45;;;4.20;;
29378;SDS011;16362;47.202;15.258;2022-09-14T01:44:41;4.22;;;3.90;;
29378;SDS011;16362;47.202;15.258;2022-09-14T01:47:22;3.60;;;3.40;;
29378;SDS011;16362;47.202;15.258;2022-09-14T01:50:37;5.20;;;3.85;;
29378;SDS011;16362;47.202;15.258;2022-09-14T01:53:11;11.98;;;3.70;;
29378;SDS011;16362;47.202;15.258;2022-09-14T01:55:44;3.97;;;3.78;;
29378;SDS011;16362;47.202;15.258;2022-09-14T01:58:38;4.55;;;3.70;;
29378;SDS011;16362;47.202;15.258;2022-09-14T02:01:11;4.03;;;3.83;;
29378;SDS011;16362;47.202;15.258;2022-09-14T02:03:44;5.63;;;3.90;;
29378;SDS011;16362;47.202;15.258;2022-09-14T02:06:18;5.38;;;3.90;;
29378;SDS011;16362;47.202;15.258;2022-09-14T02:08:52;6.60;;;4.10;;
29378;SDS011;16362;47.202;15.258;2022-09-14T02:11:19;6.88;;;3.97;;
29378;SDS011;16362;47.202;15.258;2022-09-14T02:13:46;4.18;;;3.88;;
29378;SDS011;16362;47.202;15.258;2022-09-14T02:16:13;4.40;;;4.07;;
29378;SDS011;16362;47.202;15.258;2022-09-14T02:18:40;5.05;;;3.95;;
29378;SDS011;16362;47.202;15.258;2022-09-14T02:21:19;7.03;;;3.83;;
29378;SDS011;16362;47.202;15.258;2022-09-14T02:23:50;3.70;;;3.50;;
29378;SDS011;16362;47.202;15.258;2022-09-14T02:26:18;6.63;;;4.00;;
29378;SDS011;16362;47.202;15.258;2022-09-14T02:28:46;4.25;;;3.33;;
29378;SDS011;16362;47.202;15.258;2022-09-14T02:31:18;4.10;;;3.85;;
29378;SDS011;16362;47.202;15.258;2022-09-14T02:34:08;4.25;;;4.03;;
29378;SDS011;16362;47.202;15.258;2022-09-14T02:36:46;4.70;;;3.83;;
29378;SDS011;16362;47.202;15.258;2022-09-14T02:41:57;13.32;;;3.88;;
29378;SDS011;16362;47.202;15.258;2022-09-14T02:47:34;6.68;;;3.63;;
29378;SDS011;16362;47.202;15.258;2022-09-14T02:52:59;4.35;;;3.88;;
29378;SDS011;16362;47.202;15.258;2022-09-14T02:55:28;3.65;;;3.45;;
29378;SDS011;16362;47.202;15.258;2022-09-14T02:58:04;3.65;;;3.45;;
29378;SDS011;16362;47.202;15.258;2022-09-14T03:00:40;3.90;;;3.60;;
29378;SDS011;16362;47.202;15.258;2022-09-14T03:05:36;3.63;;;3.38;;
29378;SDS011;16362;47.202;15.258;2022-09-14T03:08:03;12.60;;;3.83;;
29378;SDS011;16362;47.202;15.258;2022-09-14T03:10:30;5.00;;;3.50;;
29378;SDS011;16362;47.202;15.258;2022-09-14T03:12:57;4.03;;;3.75;;
29378;SDS011;16362;47.202;15.258;2022-09-14T03:15:25;3.90;;;3.70;;
29378;SDS011;16362;47.202;15.258;2022-09-14T03:17:52;3.88;;;3.67;;
29378;SDS011;16362;47.202;15.258;2022-09-14T03:20:21;4.75;;;3.33;;
29378;SDS011;16362;47.202;15.258;2022-09-14T03:22:50;3.35;;;3.25;;
29378;SDS011;16362;47.202;15.258;2022-09-14T03:25:17;4.20;;;3.30;;
29378;SDS011;16362;47.202;15.258;2022-09-14T03:27:48;3.35;;;3.15;;
29378;SDS011;16362;47.202;15.258;2022-09-14T03:30:16;3.60;;;3.28;;
29378;SDS011;16362;47.202;15.258;2022-09-14T03:32:43;3.53;;;3.42;;
29378;SDS011;16362;47.202;15.258;2022-09-14T03:35:11;4.72;;;3.38;;
29378;SDS011;16362;47.202;15.258;2022-09-14T03:37:39;5.43;;;3.60;;
29378;SDS011;16362;47.202;15.258;2022-09-14T03:40:08;9.75;;;3.50;;
29378;SDS011;16362;47.202;15.258;2022-09-14T03:42:36;7.35;;;3.85;;
29378;SDS011;16362;47.202;15.258;2022-09-14T03:45:07;4.65;;;3.55;;
29378;SDS011;16362;47.202;15.258;2022-09-14T03:47:34;3.85;;;3.35;;
29378;SDS011;16362;47.202;15.258;2022-09-14T03:50:01;3.00;;;2.90;;
29378;SDS011;16362;47.202;15.258;2022-09-14T03:52:28;3.53;;;3.40;;
29378;SDS011;16362;47.202;15.258;2022-09-14T03:54:54;10.38;;;3.63;;
29378;SDS011;16362;47.202;15.258;2022-09-14T03:57:21;3.95;;;3.70;;
29378;SDS011;16362;47.202;15.258;2022-09-14T03:59:48;3.80;;;3.13;;
29378;SDS011;16362;47.202;15.258;2022-09-14T04:02:15;3.25;;;2.95;;
29378;SDS011;16362;47.202;15.258;2022-09-14T04:04:42;3.45;;;3.25;;
29378;SDS011;16362;47.202;15.258;2022-09-14T04:07:08;4.40;;;3.60;;
29378;SDS011;16362;47.202;15.258;2022-09-14T04:09:35;3.70;;;3.50;;
29378;SDS011;16362;47.202;15.258;2022-09-14T04:12:03;3.22;;;3.03;;
29378;SDS011;16362;47.202;15.258;2022-09-14T04:14:29;3.50;;;3.28;;
29378;SDS011;16362;47.202;15.258;2022-09-14T04:16:56;3.35;;;3.15;;
29378;SDS011;16362;47.202;15.258;2022-09-14T04:19:23;3.58;;;3.28;;
29378;SDS011;16362;47.202;15.258;2022-09-14T04:21:49;3.70;;;3.30;;
29378;SDS011;16362;47.202;15.258;2022-09-14T04:24:16;3.15;;;3.05;;
29378;SDS011;16362;47.202;15.258;2022-09-14T04:26:44;3.10;;;3.00;;
29378;SDS011;16362;47.202;15.258;2022-09-14T04:29:11;3.45;;;2.95;;
29378;SDS011;16362;47.202;15.258;2022-09-14T04:31:39;3.90;;;3.20;;
29378;SDS011;16362;47.202;15.258;2022-09-14T04:34:06;3.22;;;3.03;;
29378;SDS011;16362;47.202;15.258;2022-09-14T04:36:33;3.10;;;3.00;;
29378;SDS011;16362;47.202;15.258;2022-09-14T04:39:00;3.67;;;3.13;;
29378;SDS011;16362;47.202;15.258;2022-09-14T04:41:29;5.25;;;3.20;;
29378;SDS011;16362;47.202;15.258;2022-09-14T04:43:57;3.47;;;3.17;;
29378;SDS011;16362;47.202;15.258;2022-09-14T04:46:29;3.97;;;2.92;;
29378;SDS011;16362;47.202;15.258;2022-09-14T04:48:57;3.10;;;2.75;;
29378;SDS011;16362;47.202;15.258;2022-09-14T04:51:25;3.38;;;3.10;;
29378;SDS011;16362;47.202;15.258;2022-09-14T04:53:54;5.50;;;2.90;;
29378;SDS011;16362;47.202;15.258;2022-09-14T04:56:22;3.15;;;2.95;;
29378;SDS011;16362;47.202;15.258;2022-09-14T04:58:52;2.53;;;2.42;;
29378;SDS011;16362;47.202;15.258;2022-09-14T05:01:25;3.83;;;2.50;;
29378;SDS011;16362;47.202;15.258;2022-09-14T05:03:54;3.47;;;3.08;;
29378;SDS011;16362;47.202;15.258;2022-09-14T05:06:22;4.40;;;2.97;;
29378;SDS011;16362;47.202;15.258;2022-09-14T05:08:50;6.05;;;2.70;;
29378;SDS011;16362;47.202;15.258;2022-09-14T05:11:19;4.35;;;3.03;;
29378;SDS011;16362;47.202;15.258;2022-09-14T05:13:48;2.90;;;2.78;;
29378;SDS011;16362;47.202;15.258;2022-09-14T05:16:21;3.25;;;2.70;;
29378;SDS011;16362;47.202;15.258;2022-09-14T05:18:48;5.20;;;2.70;;
29378;SDS011;16362;47.202;15.258;2022-09-14T05:21:17;2.70;;;2.60;;
29378;SDS011;16362;47.202;15.258;2022-09-14T05:23:45;2.65;;;2.53;;
29378;SDS011;16362;47.202;15.258;2022-09-14T05:26:12;3.38;;;2.85;;
29378;SDS011;16362;47.202;15.258;2022-09-14T05:28:40;5.53;;;3.30;;
29378;SDS011;16362;47.202;15.258;2022-09-14T05:31:07;2.67;;;2.55;;
29378;SDS011;16362;47.202;15.258;2022-09-14T05:33:36;2.30;;;2.30;;
29378;SDS011;16362;47.202;15.258;2022-09-14T05:36:03;2.78;;;2.67;;
29378;SDS011;16362;47.202;15.258;2022-09-14T05:38:32;3.58;;;3.28;;
29378;SDS011;16362;47.202;15.258;2022-09-14T05:41:00;4.28;;;3.13;;
29378;SDS011;16362;47.202;15.258;2022-09-14T05:43:27;3.08;;;2.78;;
29378;SDS011;16362;47.202;15.258;2022-09-14T05:45:55;3.88;;;2.80;;
29378;SDS011;16362;47.202;15.258;2022-09-14T05:48:22;3.78;;;3.38;;
29378;SDS011;16362;47.202;15.258;2022-09-14T05:50:48;3.58;;;2.60;;
29378;SDS011;16362;47.202;15.258;2022-09-14T05:53:23;3.00;;;2.90;;
29378;SDS011;16362;47.202;15.258;2022-09-14T05:55:57;3.28;;;2.67;;
29378;SDS011;16362;47.202;15.258;2022-09-14T05:58:45;3.50;;;3.20;;
29378;SDS011;16362;47.202;15.258;2022-09-14T06:01:16;2.72;;;2.63;;
29378;SDS011;16362;47.202;15.258;2022-09-14T06:03:48;4.70;;;2.78;;
29378;SDS011;16362;47.202;15.258;2022-09-14T06:06:17;2.80;;;2.55;;
29378;SDS011;16362;47.202;15.258;2022-09-14T06:08:45;2.88;;;2.78;;
29378;SDS011;16362;47.202;15.258;2022-09-14T06:11:16;3.92;;;2.63;;
29378;SDS011;16362;47.202;15.258;2022-09-14T06:13:45;2.70;;;2.53;;
29378;SDS011;16362;47.202;15.258;2022-09-14T06:16:16;3.17;;;2.88;;
29378;SDS011;16362;47.202;15.258;2022-09-14T06:18:45;2.50;;;2.40;;
29378;SDS011;16362;47.202;15.258;2022-09-14T06:21:13;2.50;;;2.40;;
29378;SDS011;16362;47.202;15.258;2022-09-14T06:23:42;2.90;;;2.10;;
29378;SDS011;16362;47.202;15.258;2022-09-14T06:26:09;2.45;;;2.35;;
29378;SDS011;16362;47.202;15.258;2022-09-14T06:28:37;8.63;;;2.60;;
29378;SDS011;16362;47.202;15.258;2022-09-14T06:31:04;2.45;;;2.35;;
29378;SDS011;16362;47.202;15.258;2022-09-14T06:33:33;2.30;;;2.20;;
29378;SDS011;16362;47.202;15.258;2022-09-14T06:38:29;5.38;;;2.30;;
29378;SDS011;16362;47.202;15.258;2022-09-14T06:40:57;2.80;;;2.60;;
29378;SDS011;16362;47.202;15.258;2022-09-14T06:43:26;3.25;;;2.80;;
29378;SDS011;16362;47.202;15.258;2022-09-14T06:45:54;2.42;;;2.33;;
29378;SDS011;16362;47.202;15.258;2022-09-14T06:48:21;4.95;;;2.53;;
29378;SDS011;16362;47.202;15.258;2022-09-14T06:50:48;2.63;;;2.40;;
29378;SDS011;16362;47.202;15.258;2022-09-14T06:53:15;6.28;;;2.78;;
29378;SDS011;16362;47.202;15.258;2022-09-14T06:55:41;6.30;;;2.55;;
29378;SDS011;16362;47.202;15.258;2022-09-14T06:58:10;2.65;;;2.40;;
29378;SDS011;16362;47.202;15.258;2022-09-14T07:00:37;3.53;;;2.28;;
29378;SDS011;16362;47.202;15.258;2022-09-14T07:03:03;2.10;;;2.10;;
29378;SDS011;16362;47.202;15.258;2022-09-14T07:05:30;2.22;;;2.13;;
29378;SDS011;16362;47.202;15.258;2022-09-14T07:07:57;2.40;;;2.33;;
29378;SDS011;16362;47.202;15.258;2022-09-14T07:10:24;3.97;;;1.75;;
29378;SDS011;16362;47.202;15.258;2022-09-14T07:12:53;3.95;;;2.00;;
29378;SDS011;16362;47.202;15.258;2022-09-14T07:15:20;2.88;;;2.15;;
29378;SDS011;16362;47.202;15.258;2022-09-14T07:17:47;2.10;;;2.00;;
29378;SDS011;16362;47.202;15.258;2022-09-14T07:20:14;4.80;;;2.20;;
29378;SDS011;16362;47.202;15.258;2022-09-14T07:22:41;2.67;;;2.47;;
29378;SDS011;16362;47.202;15.258;2022-09-14T07:25:08;2.08;;;1.98;;
29378;SDS011;16362;47.202;15.258;2022-09-14T07:27:35;3.03;;;2.00;;
29378;SDS011;16362;47.202;15.258;2022-09-14T07:30:05;4.35;;;2.20;;
29378;SDS011;16362;47.202;15.258;2022-09-14T07:32:32;4.80;;;2.13;;
29378;SDS011;16362;47.202;15.258;2022-09-14T07:34:59;3.80;;;1.73;;
29378;SDS011;16362;47.202;15.258;2022-09-14T07:37:27;4.63;;;1.85;;
29378;SDS011;16362;47.202;15.258;2022-09-14T07:39:55;2.67;;;1.90;;
29378;SDS011;16362;47.202;15.258;2022-09-14T07:42:22;1.77;;;1.73;;
29378;SDS011;16362;47.202;15.258;2022-09-14T07:44:49;8.45;;;2.40;;
29378;SDS011;16362;47.202;15.258;2022-09-14T07:47:16;1.90;;;1.90;;
29378;SDS011;16362;47.202;15.258;2022-09-14T07:49:42;2.60;;;1.70;;
29378;SDS011;16362;47.202;15.258;2022-09-14T07:52:09;1.70;;;1.60;;
29378;SDS011;16362;47.202;15.258;2022-09-14T07:54:36;1.83;;;1.83;;
29378;SDS011;16362;47.202;15.258;2022-09-14T07:57:03;2.50;;;1.83;;
29378;SDS011;16362;47.202;15.258;2022-09-14T07:59:30;3.17;;;1.60;;
29378;SDS011;16362;47.202;15.258;2022-09-14T08:02:03;1.80;;;1.70;;
29378;SDS011;16362;47.202;15.258;2022-09-14T08:04:35;3.65;;;1.80;;
29378;SDS011;16362;47.202;15.258;2022-09-14T08:07:04;6.18;;;2.85;;
29378;SDS011;16362;47.202;15.258;2022-09-14T08:09:31;2.50;;;2.30;;
29378;SDS011;16362;47.202;15.258;2022-09-14T08:11:58;2.30;;;2.20;;
29378;SDS011;16362;47.202;15.258;2022-09-14T08:14:25;5.68;;;2.88;;
29378;SDS011;16362;47.202;15.258;2022-09-14T08:16:52;2.33;;;2.13;;
29378;SDS011;16362;47.202;15.258;2022-09-14T08:19:19;1.92;;;1.83;;
29378;SDS011;16362;47.202;15.258;2022-09-14T08:21:46;2.17;;;1.83;;
29378;SDS011;16362;47.202;15.258;2022-09-14T08:24:15;7.63;;;2.13;;
29378;SDS011;16362;47.202;15.258;2022-09-14T08:26:43;2.85;;;2.50;;
29378;SDS011;16362;47.202;15.258;2022-09-14T08:29:11;3.03;;;2.03;;
29378;SDS011;16362;47.202;15.258;2022-09-14T08:31:38;2.55;;;1.90;;
29378;SDS011;16362;47.202;15.258;2022-09-14T08:34:06;2.10;;;2.00;;
29378;SDS011;16362;47.202;15.258;2022-09-14T08:36:36;1.60;;;1.60;;
29378;SDS011;16362;47.202;15.258;2022-09-14T08:39:05;3.72;;;1.98;;
29378;SDS011;16362;47.202;15.258;2022-09-14T08:41:46;2.28;;;2.00;;
29378;SDS011;16362;47.202;15.258;2022-09-14T08:44:29;3.35;;;1.90;;
29378;SDS011;16362;47.202;15.258;2022-09-14T08:52:01;2.10;;;2.00;;
29378;SDS011;16362;47.202;15.258;2022-09-14T08:54:29;3.38;;;2.13;;
29378;SDS011;16362;47.202;15.258;2022-09-14T08:57:00;1.98;;;1.88;;
29378;SDS011;16362;47.202;15.258;2022-09-14T09:04:57;9.52;;;2.13;;
29378;SDS011;16362;47.202;15.258;2022-09-14T09:10:55;6.35;;;3.03;;
29378;SDS011;16362;47.202;15.258;2022-09-14T09:13:26;3.63;;;2.20;;
29378;SDS011;16362;47.202;15.258;2022-09-14T09:15:58;2.90;;;2.08;;
29378;SDS011;16362;47.202;15.258;2022-09-14T09:21:06;4.63;;;2.17;;
29378;SDS011;16362;47.202;15.258;2022-09-14T09:23:37;1.85;;;1.77;;
29378;SDS011;16362;47.202;15.258;2022-09-14T09:29:04;2.67;;;2.30;;
29378;SDS011;16362;47.202;15.258;2022-09-14T09:31:37;3.83;;;1.88;;
29378;SDS011;16362;47.202;15.258;2022-09-14T09:34:05;1.80;;;1.70;;
29378;SDS011;16362;47.202;15.258;2022-09-14T09:36:33;1.83;;;1.75;;
29378;SDS011;16362;47.202;15.258;2022-09-14T09:39:02;1.80;;;1.70;;
29378;SDS011;16362;47.202;15.258;2022-09-14T09:41:34;2.15;;;1.75;;
29378;SDS011;16362;47.202;15.258;2022-09-14T09:44:09;3.20;;;1.80;;
29378;SDS011;16362;47.202;15.258;2022-09-14T09:46:37;2.20;;;2.10;;
29378;SDS011;16362;47.202;15.258;2022-09-14T09:49:53;2.38;;;1.80;;
29378;SDS011;16362;47.202;15.258;2022-09-14T09:52:12;1.65;;;1.65;;
29378;SDS011;16362;47.202;15.258;2022-09-14T09:54:42;2.78;;;2.42;;
29378;SDS011;16362;47.202;15.258;2022-09-14T09:57:28;6.55;;;2.05;;
29378;SDS011;16362;47.202;15.258;2022-09-14T10:00:08;1.90;;;1.80;;
29378;SDS011;16362;47.202;15.258;2022-09-14T10:02:43;3.83;;;2.15;;
29378;SDS011;16362;47.202;15.258;2022-09-14T10:10:16;2.78;;;2.10;;
29378;SDS011;16362;47.202;15.258;2022-09-14T10:12:45;2.17;;;2.08;;
29378;SDS011;16362;47.202;15.258;2022-09-14T10:15:30;5.63;;;2.03;;
29378;SDS011;16362;47.202;15.258;2022-09-14T10:18:06;2.08;;;1.88;;
29378;SDS011;16362;47.202;15.258;2022-09-14T10:20:41;3.90;;;2.25;;
29378;SDS011;16362;47.202;15.258;2022-09-14T10:25:44;2.30;;;2.10;;
29378;SDS011;16362;47.202;15.258;2022-09-14T10:28:22;1.90;;;1.90;;
29378;SDS011;16362;47.202;15.258;2022-09-14T10:33:46;2.20;;;2.10;;
29378;SDS011;16362;47.202;15.258;2022-09-14T10:36:20;10.95;;;2.50;;
29378;SDS011;16362;47.202;15.258;2022-09-14T10:39:27;2.10;;;2.00;;
29378;SDS011;16362;47.202;15.258;2022-09-14T10:42:16;3.60;;;2.28;;
29378;SDS011;16362;47.202;15.258;2022-09-14T10:45:02;4.10;;;2.08;;
29378;SDS011;16362;47.202;15.258;2022-09-14T11:07:55;2.58;;;2.40;;
29378;SDS011;16362;47.202;15.258;2022-09-14T11:10:29;3.47;;;1.83;;
29378;SDS011;16362;47.202;15.258;2022-09-14T11:15:40;2.20;;;2.10;;
29378;SDS011;16362;47.202;15.258;2022-09-14T11:25:58;5.97;;;1.50;;
29378;SDS011;16362;47.202;15.258;2022-09-14T11:28:42;4.93;;;1.67;;
29378;SDS011;16362;47.202;15.258;2022-09-14T11:33:44;2.17;;;1.95;;
29378;SDS011;16362;47.202;15.258;2022-09-14T11:36:39;2.90;;;1.92;;
29378;SDS011;16362;47.202;15.258;2022-09-14T11:39:18;1.80;;;1.55;;
29378;SDS011;16362;47.202;15.258;2022-09-14T11:41:51;8.55;;;1.65;;
29378;SDS011;16362;47.202;15.258;2022-09-14T11:44:32;6.60;;;2.10;;
29378;SDS011;16362;47.202;15.258;2022-09-14T11:47:04;11.30;;;2.17;;
29378;SDS011;16362;47.202;15.258;2022-09-14T11:52:29;6.68;;;2.00;;
29378;SDS011;16362;47.202;15.258;2022-09-14T11:54:57;2.08;;;1.90;;
29378;SDS011;16362;47.202;15.258;2022-09-14T11:57:26;3.85;;;1.80;;
29378;SDS011;16362;47.202;15.258;2022-09-14T12:00:01;4.78;;;1.92;;
29378;SDS011;16362;47.202;15.258;2022-09-14T12:02:42;3.42;;;1.80;;
29378;SDS011;16362;47.202;15.258;2022-09-14T12:23:25;2.55;;;2.10;;
29378;SDS011;16362;47.202;15.258;2022-09-14T12:26:22;2.20;;;2.10;;
29378;SDS011;16362;47.202;15.258;2022-09-14T12:28:46;2.30;;;2.20;;
29378;SDS011;16362;47.202;15.258;2022-09-14T12:31:32;2.17;;;2.05;;
29378;SDS011;16362;47.202;15.258;2022-09-14T12:34:27;3.03;;;2.20;;
29378;SDS011;16362;47.202;15.258;2022-09-14T12:37:00;5.20;;;2.40;;
29378;SDS011;16362;47.202;15.258;2022-09-14T12:39:34;5.13;;;2.60;;
29378;SDS011;16362;47.202;15.258;2022-09-14T12:42:02;3.53;;;2.58;;
29378;SDS011;16362;47.202;15.258;2022-09-14T12:44:50;3.67;;;2.30;;
29378;SDS011;16362;47.202;15.258;2022-09-14T12:49:54;7.30;;;2.78;;
29378;SDS011;16362;47.202;15.258;2022-09-14T12:52:29;2.75;;;2.50;;
29378;SDS011;16362;47.202;15.258;2022-09-14T12:55:05;2.85;;;2.17;;
29378;SDS011;16362;47.202;15.258;2022-09-14T12:58:01;2.42;;;2.33;;
29378;SDS011;16362;47.202;15.258;2022-09-14T13:03:54;11.00;;;2.75;;
29378;SDS011;16362;47.202;15.258;2022-09-14T13:06:22;2.75;;;2.55;;
29378;SDS011;16362;47.202;15.258;2022-09-14T13:08:56;5.38;;;2.63;;
29378;SDS011;16362;47.202;15.258;2022-09-14T13:11:26;2.60;;;2.40;;
29378;SDS011;16362;47.202;15.258;2022-09-14T13:13:57;5.43;;;2.80;;
29378;SDS011;16362;47.202;15.258;2022-09-14T13:16:34;2.72;;;2.50;;
29378;SDS011;16362;47.202;15.258;2022-09-14T13:19:16;5.15;;;2.30;;
29378;SDS011;16362;47.202;15.258;2022-09-14T13:21:47;5.45;;;2.78;;
29378;SDS011;16362;47.202;15.258;2022-09-14T13:24:18;3.33;;;2.97;;
29378;SDS011;16362;47.202;15.258;2022-09-14T13:26:47;2.75;;;2.53;;
29378;SDS011;16362;47.202;15.258;2022-09-14T13:29:14;6.78;;;2.55;;
29378;SDS011;16362;47.202;15.258;2022-09-14T13:31:42;6.75;;;3.00;;
29378;SDS011;16362;47.202;15.258;2022-09-14T13:34:17;2.67;;;2.20;;
29378;SDS011;16362;47.202;15.258;2022-09-14T13:36:47;2.85;;;2.28;;
29378;SDS011;16362;47.202;15.258;2022-09-14T13:39:26;4.85;;;2.53;;
29378;SDS011;16362;47.202;15.258;2022-09-14T13:41:56;2.80;;;2.50;;
29378;SDS011;16362;47.202;15.258;2022-09-14T13:44:25;5.63;;;2.83;;
29378;SDS011;16362;47.202;15.258;2022-09-14T13:46:57;4.75;;;2.80;;
29378;SDS011;16362;47.202;15.258;2022-09-14T13:49:26;5.18;;;2.65;;
29378;SDS011;16362;47.202;15.258;2022-09-14T13:54:42;2.33;;;2.22;;
29378;SDS011;16362;47.202;15.258;2022-09-14T14:02:33;2.40;;;2.25;;
29378;SDS011;16362;47.202;15.258;2022-09-14T14:05:01;3.33;;;2.08;;
29378;SDS011;16362;47.202;15.258;2022-09-14T14:07:34;5.38;;;2.70;;
29378;SDS011;16362;47.202;15.258;2022-09-14T14:10:01;2.60;;;2.08;;
29378;SDS011;16362;47.202;15.258;2022-09-14T14:12:30;4.05;;;2.63;;
29378;SDS011;16362;47.202;15.258;2022-09-14T14:14:58;3.20;;;2.35;;
29378;SDS011;16362;47.202;15.258;2022-09-14T14:19:58;4.00;;;2.10;;
29378;SDS011;16362;47.202;15.258;2022-09-14T14:22:32;9.50;;;2.25;;
29378;SDS011;16362;47.202;15.258;2022-09-14T14:25:16;2.70;;;2.60;;
29378;SDS011;16362;47.202;15.258;2022-09-14T14:27:45;3.47;;;2.30;;
29378;SDS011;16362;47.202;15.258;2022-09-14T14:30:17;3.33;;;2.70;;
29378;SDS011;16362;47.202;15.258;2022-09-14T14:32:53;2.63;;;2.42;;
29378;SDS011;16362;47.202;15.258;2022-09-14T14:35:22;4.65;;;2.67;;
29378;SDS011;16362;47.202;15.258;2022-09-14T14:37:51;3.00;;;2.70;;
29378;SDS011;16362;47.202;15.258;2022-09-14T14:40:18;6.47;;;2.47;;
29378;SDS011;16362;47.202;15.258;2022-09-14T14:42:45;13.07;;;3.08;;
29378;SDS011;16362;47.202;15.258;2022-09-14T14:45:16;6.10;;;2.67;;
29378;SDS011;16362;47.202;15.258;2022-09-14T14:47:46;4.10;;;2.50;;
29378;SDS011;16362;47.202;15.258;2022-09-14T14:50:14;3.60;;;2.55;;
29378;SDS011;16362;47.202;15.258;2022-09-14T14:52:42;2.60;;;2.50;;
29378;SDS011;16362;47.202;15.258;2022-09-14T14:55:09;9.38;;;2.65;;
29378;SDS011;16362;47.202;15.258;2022-09-14T14:57:36;17.65;;;3.17;;
29378;SDS011;16362;47.202;15.258;2022-09-14T15:00:11;3.25;;;2.25;;
29378;SDS011;16362;47.202;15.258;2022-09-14T15:02:40;6.88;;;2.60;;
29378;SDS011;16362;47.202;15.258;2022-09-14T15:05:08;3.55;;;2.85;;
29378;SDS011;16362;47.202;15.258;2022-09-14T15:07:35;7.07;;;2.85;;
29378;SDS011;16362;47.202;15.258;2022-09-14T15:10:03;8.68;;;2.70;;
29378;SDS011;16362;47.202;15.258;2022-09-14T15:12:31;7.50;;;2.80;;
29378;SDS011;16362;47.202;15.258;2022-09-14T15:14:59;4.88;;;2.60;;
29378;SDS011;16362;47.202;15.258;2022-09-14T15:17:26;3.13;;;2.85;;
29378;SDS011;16362;47.202;15.258;2022-09-14T15:19:53;2.78;;;2.55;;
29378;SDS011;16362;47.202;15.258;2022-09-14T15:22:19;8.55;;;2.45;;
29378;SDS011;16362;47.202;15.258;2022-09-14T15:24:46;5.68;;;2.97;;
29378;SDS011;16362;47.202;15.258;2022-09-14T15:27:13;6.03;;;2.70;;
29378;SDS011;16362;47.202;15.258;2022-09-14T15:29:40;4.90;;;2.72;;
29378;SDS011;16362;47.202;15.258;2022-09-14T15:32:06;12.25;;;2.70;;
29378;SDS011;16362;47.202;15.258;2022-09-14T15:34:33;2.90;;;2.70;;
29378;SDS011;16362;47.202;15.258;2022-09-14T15:37:00;3.20;;;3.00;;
29378;SDS011;16362;47.202;15.258;2022-09-14T15:39:27;5.20;;;2.50;;
29378;SDS011;16362;47.202;15.258;2022-09-14T15:41:55;3.20;;;2.88;;
29378;SDS011;16362;47.202;15.258;2022-09-14T15:44:22;2.60;;;2.40;;
29378;SDS011;16362;47.202;15.258;2022-09-14T15:46:49;2.83;;;2.63;;
29378;SDS011;16362;47.202;15.258;2022-09-14T15:49:17;8.02;;;2.63;;
29378;SDS011;16362;47.202;15.258;2022-09-14T15:51:48;3.83;;;2.63;;
29378;SDS011;16362;47.202;15.258;2022-09-14T15:54:17;10.52;;;2.83;;
29378;SDS011;16362;47.202;15.258;2022-09-14T15:56:46;2.47;;;2.38;;
29378;SDS011;16362;47.202;15.258;2022-09-14T15:59:21;5.35;;;2.70;;
29378;SDS011;16362;47.202;15.258;2022-09-14T16:01:48;3.30;;;2.40;;
29378;SDS011;16362;47.202;15.258;2022-09-14T16:04:15;2.70;;;2.55;;
29378;SDS011;16362;47.202;15.258;2022-09-14T16:06:42;2.50;;;2.40;;
29378;SDS011;16362;47.202;15.258;2022-09-14T16:09:10;3.38;;;2.45;;
29378;SDS011;16362;47.202;15.258;2022-09-14T16:11:38;4.40;;;2.42;;
29378;SDS011;16362;47.202;15.258;2022-09-14T16:14:07;8.70;;;3.03;;
29378;SDS011;16362;47.202;15.258;2022-09-14T16:16:35;2.80;;;2.60;;
29378;SDS011;16362;47.202;15.258;2022-09-14T16:19:07;2.80;;;2.60;;
29378;SDS011;16362;47.202;15.258;2022-09-14T16:21:36;2.63;;;2.53;;
29378;SDS011;16362;47.202;15.258;2022-09-14T16:24:05;7.13;;;2.85;;
29378;SDS011;16362;47.202;15.258;2022-09-14T16:26:34;6.05;;;3.00;;
29378;SDS011;16362;47.202;15.258;2022-09-14T16:29:02;3.72;;;3.00;;
29378;SDS011;16362;47.202;15.258;2022-09-14T16:31:31;2.67;;;2.58;;
29378;SDS011;16362;47.202;15.258;2022-09-14T16:34:02;7.25;;;2.55;;
29378;SDS011;16362;47.202;15.258;2022-09-14T16:36:32;7.05;;;2.70;;
29378;SDS011;16362;47.202;15.258;2022-09-14T16:39:03;4.40;;;2.60;;
29378;SDS011;16362;47.202;15.258;2022-09-14T16:41:32;5.07;;;3.90;;
29378;SDS011;16362;47.202;15.258;2022-09-14T16:44:00;2.78;;;2.67;;
29378;SDS011;16362;47.202;15.258;2022-09-14T16:46:28;2.70;;;2.50;;
29378;SDS011;16362;47.202;15.258;2022-09-14T16:48:56;5.85;;;3.00;;
29378;SDS011;16362;47.202;15.258;2022-09-14T16:51:27;3.00;;;2.80;;
29378;SDS011;16362;47.202;15.258;2022-09-14T16:53:55;3.08;;;2.85;;
29378;SDS011;16362;47.202;15.258;2022-09-14T16:56:33;5.53;;;2.42;;
29378;SDS011;16362;47.202;15.258;2022-09-14T16:59:02;3.20;;;2.60;;
29378;SDS011;16362;47.202;15.258;2022-09-14T17:01:31;3.45;;;2.70;;
29378;SDS011;16362;47.202;15.258;2022-09-14T17:04:02;4.03;;;2.60;;